»·PEaware :: N804GA KRDD-KSAC

N804GA :: KRDD-KSAC

FLIGHT INFORMATION

Flight Status: Arrived
Operator: Privately registered:
United States
More flights under this callsign
Pilot: Andy L. (28483)
Aircraft: GRUMMAN AERO AA5 CHEETAH TIGER
(AA5)
More flights by this aircraft type
Origin: KRDD Redding Mun
United States
Destination: KSAC Sacramento Executive
United States
More flights between these airports :: More routes between these airports
Route: HOMAN3 RBL V23 SAC
File this flight plan on PilotEdge
Remarks:
Altitude:
(Current/Filed)
5,000ft
Speed:
(Current/Filed)
130kts
Departed: 14-Dec-21 11:24 AM
Arrived: 14-Dec-21 12:44 PM
Distance/Time
Traveled:
125nm/1:20
Distance/Time
To Go:
Arrived

Flight Plot

Page will automatically refresh every two minutes.

Flight plan parsing failed; only flown route is shown


Map Options




Map Legend


Flown Route
Filed Route
Departure Airport
Arrival Airport
Navaid (VOR, NDB)
Fix

Horizontal Profiles

Position Reports

Time Latitude Longitude Heading Altitude Ground
Speed
14-Dec-21 11:03 40.508630 -122.298003 179 494ft 0kts
14-Dec-21 11:04 40.508630 -122.298003 179 494ft 0kts
14-Dec-21 11:05 40.508630 -122.298003 179 494ft 0kts
14-Dec-21 11:06 40.508630 -122.298003 179 494ft 0kts
14-Dec-21 11:07 40.508630 -122.298003 179 494ft 0kts
14-Dec-21 11:08 40.508630 -122.298003 179 494ft 0kts
14-Dec-21 11:09 40.508630 -122.298003 179 494ft 0kts
14-Dec-21 11:10 40.508630 -122.298003 179 494ft 0kts
14-Dec-21 11:11 40.508722 -122.296727 45 494ft 8kts
14-Dec-21 11:12 40.511399 -122.296301 359 494ft 9kts
14-Dec-21 11:13 40.516269 -122.296285 359 500ft 23kts
14-Dec-21 11:14 40.520541 -122.296016 135 501ft 0kts
14-Dec-21 11:15 40.520541 -122.296016 135 501ft 0kts
14-Dec-21 11:16 40.520541 -122.296016 135 501ft 0kts
14-Dec-21 11:17 40.520541 -122.296016 135 501ft 0kts
14-Dec-21 11:18 40.520541 -122.296016 135 501ft 0kts
14-Dec-21 11:19 40.520541 -122.296016 135 501ft 0kts
14-Dec-21 11:20 40.520541 -122.296016 135 501ft 0kts
14-Dec-21 11:21 40.520371 -122.295948 176 501ft 4kts
14-Dec-21 11:23 40.520227 -122.295478 93 501ft 8kts
14-Dec-21 11:24 40.508566 -122.295030 182 708ft 88kts
14-Dec-21 11:25 40.488434 -122.283393 126 1657ft 87kts
14-Dec-21 11:26 40.472073 -122.259065 148 2528ft 89kts
14-Dec-21 11:27 40.457086 -122.233423 123 3343ft 90kts
14-Dec-21 11:28 40.443821 -122.205807 126 4126ft 89kts
14-Dec-21 11:29 40.431155 -122.177473 127 4841ft 91kts
14-Dec-21 11:30 40.413982 -122.145619 125 5119ft 122kts
14-Dec-21 11:31 40.382413 -122.135523 194 5119ft 133kts
14-Dec-21 11:32 40.346478 -122.148672 196 5006ft 132kts
14-Dec-21 11:33 40.309646 -122.157146 185 5037ft 135kts
14-Dec-21 11:34 40.273840 -122.171833 196 5167ft 134kts
14-Dec-21 11:35 40.236905 -122.184431 193 5061ft 136kts
14-Dec-21 11:36 40.200433 -122.198276 196 5096ft 136kts
14-Dec-21 11:37 40.163806 -122.211269 195 5146ft 137kts
14-Dec-21 11:38 40.126953 -122.224922 198 5062ft 133kts
14-Dec-21 11:39 40.091143 -122.235279 164 4994ft 135kts
14-Dec-21 11:40 40.055777 -122.217504 155 4949ft 138kts
14-Dec-21 11:41 40.021018 -122.198144 158 5017ft 136kts
14-Dec-21 11:42 39.985815 -122.180115 156 5032ft 136kts
14-Dec-21 11:43 39.951023 -122.160880 160 5043ft 136kts
14-Dec-21 11:44 39.916004 -122.142216 160 5060ft 136kts
14-Dec-21 11:44 39.886848 -122.126580 155 5063ft 136kts
14-Dec-21 11:46 39.845882 -122.105494 160 5073ft 136kts
14-Dec-21 11:47 39.809909 -122.090122 162 5080ft 136kts
14-Dec-21 11:48 39.774496 -122.072641 156 5078ft 137kts
14-Dec-21 11:49 39.739456 -122.054355 155 5088ft 136kts
14-Dec-21 11:49 39.710117 -122.038738 159 5047ft 136kts
14-Dec-21 11:50 39.674745 -122.021007 159 5029ft 136kts
14-Dec-21 11:52 39.634347 -121.998473 158 5009ft 136kts
14-Dec-21 11:53 39.598806 -121.981719 157 4994ft 136kts
14-Dec-21 11:53 39.570610 -121.963635 159 4986ft 136kts
14-Dec-21 11:54 39.535405 -121.946403 158 5019ft 135kts
14-Dec-21 11:55 39.500603 -121.927604 151 5059ft 136kts
14-Dec-21 11:56 39.465646 -121.909201 155 5097ft 136kts
14-Dec-21 11:57 39.430354 -121.891228 157 5106ft 135kts
14-Dec-21 11:58 39.394818 -121.875390 159 5049ft 135kts
14-Dec-21 11:59 39.359419 -121.858664 162 5003ft 135kts
14-Dec-21 12:00 39.324752 -121.839783 169 4923ft 137kts
14-Dec-21 12:01 39.288024 -121.828667 163 5002ft 134kts
14-Dec-21 12:02 39.251762 -121.816140 160 4989ft 135kts
14-Dec-21 12:03 39.215305 -121.804312 164 4969ft 135kts
14-Dec-21 12:04 39.178606 -121.793576 165 4958ft 135kts
14-Dec-21 12:05 39.142088 -121.781682 160 4928ft 135kts
14-Dec-21 12:06 39.106070 -121.767611 165 4951ft 135kts
14-Dec-21 12:07 39.069306 -121.756942 166 5047ft 135kts
14-Dec-21 12:08 39.032592 -121.745723 171 5022ft 136kts
14-Dec-21 12:09 38.997583 -121.760774 209 4972ft 136kts
14-Dec-21 12:10 38.963490 -121.781370 207 4935ft 135kts
14-Dec-21 12:11 38.928489 -121.798307 200 4886ft 133kts
14-Dec-21 12:12 38.894104 -121.816749 202 5024ft 129kts
14-Dec-21 12:13 38.860943 -121.836937 208 4976ft 131kts
14-Dec-21 12:14 38.828540 -121.859175 206 5027ft 132kts
14-Dec-21 12:15 38.794196 -121.876074 193 5127ft 133kts
14-Dec-21 12:16 38.758461 -121.887864 191 5119ft 132kts
14-Dec-21 12:17 38.722812 -121.899240 196 5080ft 132kts
14-Dec-21 12:18 38.687248 -121.910088 191 5044ft 132kts
14-Dec-21 12:19 38.651467 -121.920396 192 5009ft 132kts
14-Dec-21 12:20 38.616099 -121.933107 197 5006ft 132kts
14-Dec-21 12:21 38.580701 -121.945343 191 5047ft 132kts
14-Dec-21 12:22 38.544384 -121.946943 160 5062ft 134kts
14-Dec-21 12:23 38.510291 -121.931844 168 4585ft 128kts
14-Dec-21 12:24 38.475686 -121.916585 161 4037ft 132kts
14-Dec-21 12:25 38.442509 -121.902097 158 4047ft 121kts
14-Dec-21 12:26 38.410976 -121.885642 161 4121ft 124kts
14-Dec-21 12:27 38.378875 -121.870811 164 4047ft 119kts
14-Dec-21 12:28 38.347651 -121.855508 160 3547ft 119kts
14-Dec-21 12:29 38.315647 -121.842947 159 3107ft 118kts
14-Dec-21 12:30 38.287574 -121.822225 100 3083ft 121kts
14-Dec-21 12:31 38.298259 -121.781315 62 3063ft 117kts
14-Dec-21 12:32 38.312745 -121.743266 64 2701ft 119kts
14-Dec-21 12:33 38.326443 -121.705475 63 2211ft 116kts
14-Dec-21 12:34 38.338095 -121.673081 68 2027ft 98kts
14-Dec-21 12:35 38.350139 -121.642790 61 2011ft 94kts
14-Dec-21 12:36 38.362393 -121.613610 37 2002ft 95kts
14-Dec-21 12:37 38.384897 -121.596425 34 2017ft 93kts
14-Dec-21 12:38 38.407218 -121.578958 30 2020ft 94kts
14-Dec-21 12:39 38.428929 -121.560623 29 1769ft 93kts
14-Dec-21 12:40 38.451437 -121.544469 26 1282ft 92kts
14-Dec-21 12:41 38.473213 -121.527140 33 764ft 93kts
14-Dec-21 12:42 38.494537 -121.509410 32 339ft 87kts
14-Dec-21 12:43 38.509779 -121.496979 34 18ft 33kts
14-Dec-21 12:44 38.511532 -121.497178 33 18ft 4kts
14-Dec-21 12:45 38.513434 -121.497127 274 18ft 0kts

Navigation Log

Ident Type
Flight plan parsing failed, navigation log unavailable